createdAt,value
2022-11-18T00:01:36.986Z,2.97
2022-11-18T00:04:04.261Z,2.28
2022-11-18T00:06:31.596Z,2.97
2022-11-18T00:09:00.188Z,2.90
2022-11-18T00:11:45.921Z,2.40
2022-11-18T00:14:19.498Z,2.72
2022-11-18T00:16:54.863Z,2.50
2022-11-18T00:19:25.078Z,2.55
2022-11-18T00:21:52.355Z,2.40
2022-11-18T00:24:19.969Z,2.25
2022-11-18T00:26:47.466Z,1.85
2022-11-18T00:29:15.066Z,2.28
2022-11-18T00:31:42.735Z,2.00
2022-11-18T00:34:13.149Z,2.20
2022-11-18T00:36:41.908Z,2.50
2022-11-18T00:39:11.142Z,2.22
2022-11-18T00:42:07.613Z,2.25
2022-11-18T00:44:35.179Z,2.30
2022-11-18T00:47:02.593Z,2.05
2022-11-18T00:49:29.843Z,2.00
2022-11-18T00:51:57.419Z,1.90
2022-11-18T00:54:24.659Z,2.33
2022-11-18T00:56:51.844Z,2.60
2022-11-18T00:59:19.321Z,2.30
2022-11-18T01:01:46.847Z,2.45
2022-11-18T01:04:14.150Z,2.25
2022-11-18T01:06:41.523Z,2.70
2022-11-18T01:09:08.817Z,2.25
2022-11-18T01:11:54.797Z,1.98
2022-11-18T01:14:24.903Z,2.33
2022-11-18T01:16:56.292Z,2.42
2022-11-18T01:19:23.960Z,2.65
2022-11-18T01:21:51.171Z,2.63
2022-11-18T01:24:18.400Z,2.40
2022-11-18T01:26:45.544Z,2.30
2022-11-18T01:29:12.730Z,2.75
2022-11-18T01:32:01.508Z,2.42
2022-11-18T01:34:29.245Z,2.67
2022-11-18T01:36:58.068Z,2.63
2022-11-18T01:39:25.492Z,2.72
2022-11-18T01:41:52.732Z,2.90
2022-11-18T01:44:58.748Z,2.78
2022-11-18T01:47:29.775Z,2.80
2022-11-18T01:49:58.922Z,2.10
2022-11-18T01:52:26.947Z,3.38
2022-11-18T01:54:58.803Z,3.10
2022-11-18T01:57:28.140Z,3.00
2022-11-18T01:59:59.084Z,2.53
2022-11-18T02:02:30.007Z,2.20
2022-11-18T02:04:58.539Z,2.70
2022-11-18T02:07:26.268Z,3.00
2022-11-18T02:09:55.739Z,2.90
2022-11-18T02:12:23.339Z,2.88
2022-11-18T02:14:51.587Z,2.88
2022-11-18T02:17:38.503Z,3.70
2022-11-18T02:20:30.976Z,3.60
2022-11-18T02:23:38.134Z,2.80
2022-11-18T02:26:36.212Z,2.90
2022-11-18T02:29:10.694Z,3.50
2022-11-18T02:31:59.288Z,3.83
2022-11-18T02:34:47.229Z,3.90
2022-11-18T02:37:29.089Z,3.00
2022-11-18T02:40:05.359Z,3.85
2022-11-18T02:42:35.322Z,3.45
2022-11-18T02:45:16.814Z,4.07
2022-11-18T02:47:46.883Z,3.73
2022-11-18T02:50:19.584Z,3.90
2022-11-18T02:52:50.016Z,3.53
2022-11-18T02:55:18.156Z,3.63
2022-11-18T02:57:46.234Z,3.58
2022-11-18T03:00:14.085Z,3.67
2022-11-18T03:02:47.483Z,3.77
2022-11-18T03:05:30.427Z,3.70
2022-11-18T03:08:06.412Z,3.90
2022-11-18T03:10:47.528Z,4.00
2022-11-18T03:13:30.119Z,4.65
2022-11-18T03:16:09.429Z,4.18
2022-11-18T03:19:09.623Z,3.90
2022-11-18T03:21:41.429Z,4.15
2022-11-18T03:24:25.638Z,4.13
2022-11-18T03:27:00.809Z,4.10
2022-11-18T03:29:36.804Z,3.45
2022-11-18T03:32:09.772Z,5.05
2022-11-18T03:34:45.722Z,4.75
2022-11-18T03:37:15.911Z,4.82
2022-11-18T03:39:48.977Z,3.70
2022-11-18T03:42:32.707Z,5.50
2022-11-18T03:45:10.223Z,5.45
2022-11-18T03:47:42.898Z,5.30
2022-11-18T03:50:20.968Z,3.67
2022-11-18T03:52:50.845Z,4.32
2022-11-18T03:55:23.524Z,5.37
2022-11-18T03:58:04.395Z,4.40
2022-11-18T04:00:38.219Z,4.88
2022-11-18T04:03:05.550Z,5.05
2022-11-18T04:05:37.568Z,4.03
2022-11-18T04:08:11.239Z,4.97
2022-11-18T04:10:50.476Z,5.20
2022-11-18T04:13:19.905Z,5.15
2022-11-18T04:15:47.318Z,4.63
2022-11-18T04:18:14.512Z,4.73
2022-11-18T04:20:41.704Z,4.68
2022-11-18T04:23:09.206Z,5.45
2022-11-18T04:25:36.819Z,4.40
2022-11-18T04:28:04.922Z,5.78
2022-11-18T04:30:32.298Z,5.43
2022-11-18T04:32:59.569Z,5.23
2022-11-18T04:35:27.144Z,4.25
2022-11-18T04:37:54.658Z,5.55
2022-11-18T04:40:21.951Z,4.60
2022-11-18T04:42:49.131Z,4.43
2022-11-18T04:45:16.296Z,5.50
2022-11-18T04:47:43.483Z,5.10
2022-11-18T04:50:10.685Z,6.20
2022-11-18T04:52:37.917Z,6.40
2022-11-18T04:55:05.392Z,5.97
2022-11-18T04:57:32.612Z,5.55
2022-11-18T04:59:59.762Z,5.68
2022-11-18T05:02:26.936Z,6.72
2022-11-18T05:04:54.204Z,5.53
2022-11-18T05:07:21.487Z,6.53
2022-11-18T05:09:48.758Z,5.45
2022-11-18T05:12:34.884Z,5.65
2022-11-18T05:15:02.074Z,5.30
2022-11-18T05:17:29.266Z,6.03
2022-11-18T05:19:56.449Z,6.30
2022-11-18T05:22:23.665Z,6.00
2022-11-18T05:24:50.942Z,6.07
2022-11-18T05:27:18.240Z,5.97
2022-11-18T05:29:45.429Z,6.25
2022-11-18T05:32:12.623Z,6.27
2022-11-18T05:34:41.500Z,6.25
2022-11-18T05:37:09.125Z,5.68
2022-11-18T05:39:36.584Z,5.63
2022-11-18T05:42:22.513Z,4.93
2022-11-18T05:44:56.407Z,5.82
2022-11-18T05:47:26.235Z,5.80
2022-11-18T05:49:53.441Z,5.57
2022-11-18T05:52:20.843Z,5.22
2022-11-18T05:54:50.780Z,5.18
2022-11-18T05:57:17.980Z,4.90
2022-11-18T05:59:45.290Z,5.63
2022-11-18T06:02:16.896Z,5.13
2022-11-18T06:04:50.482Z,5.07
2022-11-18T06:07:25.040Z,5.77
2022-11-18T06:10:03.509Z,5.50
2022-11-18T06:12:37.971Z,5.13
2022-11-18T06:15:18.274Z,5.07
2022-11-18T06:17:56.986Z,5.47
2022-11-18T06:20:24.420Z,5.32
2022-11-18T06:22:55.618Z,5.30
2022-11-18T06:25:24.078Z,3.75
2022-11-18T06:27:53.884Z,4.95
2022-11-18T06:30:23.533Z,4.63
2022-11-18T06:32:53.097Z,4.90
2022-11-18T06:35:20.308Z,4.80
2022-11-18T06:37:47.471Z,5.25
2022-11-18T06:40:14.673Z,4.80
2022-11-18T06:43:00.307Z,4.10
2022-11-18T06:45:27.774Z,4.88
2022-11-18T06:47:58.907Z,4.68
2022-11-18T06:50:26.263Z,4.45
2022-11-18T06:52:53.871Z,3.28
2022-11-18T06:55:21.025Z,4.80
2022-11-18T06:57:48.324Z,4.75
2022-11-18T07:00:16.222Z,4.35
2022-11-18T07:02:43.411Z,3.70
2022-11-18T07:05:10.545Z,4.78
2022-11-18T07:07:42.026Z,4.30
2022-11-18T07:10:10.040Z,4.70
2022-11-18T07:12:37.232Z,4.70
2022-11-18T07:15:04.695Z,3.97
2022-11-18T07:17:31.968Z,4.40
2022-11-18T07:20:01.302Z,4.75
2022-11-18T07:22:28.876Z,4.82
2022-11-18T07:24:56.051Z,4.35
2022-11-18T07:27:23.194Z,4.90
2022-11-18T07:29:50.355Z,4.30
2022-11-18T07:32:17.570Z,4.20
2022-11-18T07:34:45.767Z,4.10
2022-11-18T07:37:12.898Z,4.18
2022-11-18T07:39:40.025Z,4.20
2022-11-18T07:42:08.645Z,4.32
2022-11-18T07:44:35.872Z,3.78
2022-11-18T07:47:03.017Z,3.60
2022-11-18T07:49:30.183Z,3.95
2022-11-18T07:51:57.402Z,3.38
2022-11-18T07:54:24.582Z,3.95
2022-11-18T07:56:51.765Z,3.70
2022-11-18T07:59:19.154Z,3.53
2022-11-18T08:01:46.624Z,3.28
2022-11-18T08:04:14.013Z,3.50
2022-11-18T08:06:41.398Z,3.90
2022-11-18T08:09:09.237Z,3.55
2022-11-18T08:11:36.760Z,4.00
2022-11-18T08:14:03.990Z,3.72
2022-11-18T08:16:31.209Z,3.58
2022-11-18T08:19:00.143Z,3.38
2022-11-18T08:21:27.313Z,3.97
2022-11-18T08:23:57.118Z,3.50
2022-11-18T08:26:25.297Z,3.72
2022-11-18T08:28:53.460Z,3.50
2022-11-18T08:31:25.913Z,3.58
2022-11-18T08:34:05.143Z,3.80
2022-11-18T08:36:35.418Z,3.93
2022-11-18T08:39:05.587Z,3.50
2022-11-18T08:41:35.914Z,3.72
2022-11-18T08:44:04.345Z,3.85
2022-11-18T08:46:31.792Z,3.67
2022-11-18T08:48:59.569Z,2.70
2022-11-18T08:51:26.954Z,3.40
2022-11-18T08:53:54.403Z,3.80
2022-11-18T08:56:25.149Z,3.80
2022-11-18T08:58:52.864Z,3.80
2022-11-18T09:01:20.303Z,3.53
2022-11-18T09:03:48.556Z,3.00
2022-11-18T09:06:20.493Z,3.60
2022-11-18T09:08:47.987Z,3.35
2022-11-18T09:11:18.670Z,2.70
2022-11-18T09:16:35.038Z,3.28
2022-11-18T09:19:18.536Z,3.33
2022-11-18T09:21:49.848Z,3.42
2022-11-18T09:24:17.510Z,3.80
2022-11-18T09:26:44.967Z,3.00
2022-11-18T09:29:12.130Z,3.90
2022-11-18T09:31:39.355Z,2.72
2022-11-18T09:34:06.587Z,2.83
2022-11-18T09:36:33.897Z,3.50
2022-11-18T09:39:01.166Z,3.80
2022-11-18T09:41:47.308Z,3.90
2022-11-18T09:44:14.483Z,3.88
2022-11-18T09:46:56.495Z,3.10
2022-11-18T09:49:38.222Z,4.40
2022-11-18T09:52:22.268Z,4.25
2022-11-18T09:54:50.403Z,4.50
2022-11-18T09:57:26.855Z,3.90
2022-11-18T09:59:54.423Z,4.50
2022-11-18T10:02:45.367Z,4.00
2022-11-18T10:05:22.149Z,4.50
2022-11-18T10:08:12.173Z,3.28
2022-11-18T10:10:57.978Z,3.80
2022-11-18T10:13:46.745Z,3.75
2022-11-18T10:16:57.966Z,3.45
2022-11-18T10:19:38.545Z,3.75
2022-11-18T10:22:38.924Z,4.20
2022-11-18T10:25:13.465Z,3.50
2022-11-18T10:27:43.252Z,3.70
2022-11-18T10:30:22.342Z,3.67
2022-11-18T10:32:56.524Z,3.40
2022-11-18T10:35:28.121Z,3.75
2022-11-18T10:38:08.994Z,3.90
2022-11-18T10:40:43.055Z,3.90
2022-11-18T10:43:10.962Z,3.28
2022-11-18T10:45:38.216Z,3.88
2022-11-18T10:48:14.378Z,3.70
2022-11-18T10:50:43.858Z,3.63
2022-11-18T10:53:31.698Z,3.10
2022-11-18T10:56:11.555Z,3.40
2022-11-18T10:58:44.844Z,3.10
2022-11-18T11:01:24.839Z,3.65
2022-11-18T11:04:22.231Z,3.30
2022-11-18T11:06:49.479Z,3.70
2022-11-18T11:09:29.723Z,3.70
2022-11-18T11:12:18.571Z,3.55
2022-11-18T11:14:50.699Z,4.05
2022-11-18T11:17:35.963Z,3.63
2022-11-18T11:20:19.058Z,3.35
2022-11-18T11:22:46.721Z,3.60
2022-11-18T11:25:26.265Z,3.22
2022-11-18T11:31:17.885Z,3.50
2022-11-18T11:34:07.873Z,3.78
2022-11-18T11:36:50.813Z,3.63
2022-11-18T11:39:27.091Z,3.40
2022-11-18T11:42:21.772Z,3.57
2022-11-18T11:45:13.947Z,3.78
2022-11-18T11:48:02.843Z,3.65
2022-11-18T11:51:05.153Z,3.97
2022-11-18T11:54:07.667Z,3.90
2022-11-18T11:56:41.688Z,3.72
2022-11-18T11:59:16.166Z,3.78
2022-11-18T12:02:17.339Z,3.85
2022-11-18T12:04:53.782Z,4.27
2022-11-18T12:07:26.612Z,3.80
2022-11-18T12:09:56.947Z,4.05
2022-11-18T12:12:50.249Z,3.05
2022-11-18T12:15:35.454Z,3.80
2022-11-18T12:18:29.905Z,4.05
2022-11-18T12:20:57.148Z,3.70
2022-11-18T12:23:26.921Z,4.68
2022-11-18T12:26:11.512Z,4.17
2022-11-18T12:28:45.141Z,4.10
2022-11-18T12:31:18.515Z,4.78
2022-11-18T12:34:16.710Z,4.30
2022-11-18T12:36:43.867Z,4.30
2022-11-18T12:39:25.890Z,4.47
2022-11-18T12:42:13.098Z,4.43
2022-11-18T12:44:41.798Z,5.00
2022-11-18T12:47:14.521Z,5.50
2022-11-18T12:49:44.677Z,4.38
2022-11-18T12:52:29.951Z,4.63
2022-11-18T12:55:03.150Z,5.47
2022-11-18T12:57:33.795Z,5.60
2022-11-18T13:00:23.971Z,5.25
2022-11-18T13:02:56.157Z,4.47
2022-11-18T13:05:30.287Z,6.07
2022-11-18T13:08:14.743Z,5.63
2022-11-18T13:10:55.870Z,5.05
2022-11-18T13:13:28.535Z,4.75
2022-11-18T13:16:17.561Z,5.90
2022-11-18T13:18:50.632Z,5.53
2022-11-18T13:21:45.520Z,6.40
2022-11-18T13:24:15.084Z,6.63
2022-11-18T13:26:44.612Z,6.38
2022-11-18T13:29:23.104Z,6.63
2022-11-18T13:32:12.805Z,6.80
2022-11-18T13:34:51.611Z,7.40
2022-11-18T13:37:22.086Z,7.10
2022-11-18T13:39:49.954Z,7.13
2022-11-18T13:42:26.325Z,7.10
2022-11-18T13:44:57.516Z,7.90
2022-11-18T13:47:36.926Z,7.68
2022-11-18T13:50:30.865Z,7.60
2022-11-18T13:53:23.130Z,8.15
2022-11-18T13:56:06.947Z,7.57
2022-11-18T13:59:10.323Z,8.90
2022-11-18T14:01:33.769Z,8.20
2022-11-18T14:04:07.153Z,7.53
2022-11-18T14:06:39.823Z,7.25
2022-11-18T14:09:15.594Z,7.60
2022-11-18T14:11:46.092Z,8.70
2022-11-18T14:14:33.644Z,8.18
2022-11-18T14:17:24.608Z,8.73
2022-11-18T14:19:54.953Z,8.38
2022-11-18T14:22:33.405Z,9.13
2022-11-18T14:25:01.948Z,9.25
2022-11-18T14:27:43.528Z,10.10
2022-11-18T14:30:30.926Z,10.00
2022-11-18T14:33:27.824Z,9.57
2022-11-18T14:36:01.725Z,10.00
2022-11-18T14:41:45.560Z,10.48
2022-11-18T14:44:13.398Z,10.85
2022-11-18T14:46:43.121Z,10.70
2022-11-18T14:49:19.767Z,11.02
2022-11-18T14:51:47.834Z,10.57
2022-11-18T14:54:23.826Z,10.90
2022-11-18T14:56:55.429Z,10.27
2022-11-18T14:59:22.976Z,10.35
2022-11-18T15:01:50.180Z,11.02
2022-11-18T15:04:18.196Z,11.35
2022-11-18T15:06:45.726Z,10.57
2022-11-18T15:09:13.762Z,10.85
2022-11-18T15:11:41.213Z,10.30
2022-11-18T15:14:08.431Z,11.07
2022-11-18T15:16:35.635Z,10.27
2022-11-18T15:19:05.075Z,11.15
2022-11-18T15:21:33.389Z,10.68
2022-11-18T15:24:00.600Z,10.07
2022-11-18T15:26:33.783Z,12.02
2022-11-18T15:29:01.333Z,11.68
2022-11-18T15:31:28.536Z,12.70
2022-11-18T15:33:55.873Z,12.50
2022-11-18T15:36:25.105Z,12.80
2022-11-18T15:38:53.881Z,12.65
2022-11-18T15:41:23.859Z,13.73
2022-11-18T15:43:51.258Z,12.85
2022-11-18T15:46:20.013Z,13.00
2022-11-18T15:48:48.405Z,14.05
2022-11-18T15:51:15.789Z,14.13
2022-11-18T15:53:42.965Z,13.50
2022-11-18T15:56:16.133Z,13.80
2022-11-18T15:58:43.439Z,14.30
2022-11-18T16:01:10.854Z,15.05
2022-11-18T16:03:38.182Z,14.00
2022-11-18T16:06:05.621Z,13.90
2022-11-18T16:08:35.233Z,13.07
2022-11-18T16:11:20.748Z,13.15
2022-11-18T16:13:47.965Z,12.27
2022-11-18T16:16:20.365Z,12.02
2022-11-18T16:18:47.676Z,11.38
2022-11-18T16:21:14.933Z,10.85
2022-11-18T16:23:42.036Z,11.02
2022-11-18T16:26:09.164Z,11.73
2022-11-18T16:28:36.301Z,12.40
2022-11-18T16:31:22.216Z,12.30
2022-11-18T16:33:49.337Z,12.73
2022-11-18T16:36:16.750Z,12.57
2022-11-18T16:38:43.899Z,12.55
2022-11-18T16:41:29.787Z,12.50
2022-11-18T16:43:58.672Z,12.67
2022-11-18T16:46:26.899Z,12.80
2022-11-18T16:48:56.557Z,12.65
2022-11-18T16:51:28.871Z,12.32
2022-11-18T16:53:58.248Z,12.25
2022-11-18T16:56:31.356Z,12.88
2022-11-18T16:59:06.971Z,12.75
2022-11-18T17:01:34.172Z,12.50
2022-11-18T17:04:01.565Z,12.45
2022-11-18T17:06:31.025Z,13.00
2022-11-18T17:08:59.327Z,13.02
2022-11-18T17:11:26.872Z,13.35
2022-11-18T17:13:58.070Z,14.23
2022-11-18T17:16:26.460Z,14.70
2022-11-18T17:18:58.741Z,14.55
2022-11-18T17:21:27.352Z,14.90
2022-11-18T17:23:54.994Z,16.23
2022-11-18T17:26:27.603Z,14.93
2022-11-18T17:28:55.635Z,16.33
2022-11-18T17:31:23.853Z,16.57
2022-11-18T17:33:53.323Z,14.75
2022-11-18T17:36:22.620Z,15.83
2022-11-18T17:38:51.864Z,14.30
2022-11-18T17:41:40.025Z,15.48
2022-11-18T17:44:09.283Z,16.40
2022-11-18T17:46:38.485Z,16.25
2022-11-18T17:49:12.201Z,16.73
2022-11-18T17:51:39.690Z,14.93
2022-11-18T17:54:07.978Z,15.35
2022-11-18T17:56:35.371Z,15.18
2022-11-18T17:59:02.582Z,15.52
2022-11-18T18:01:29.972Z,15.35
2022-11-18T18:03:57.444Z,15.32
2022-11-18T18:06:25.085Z,15.48
2022-11-18T18:08:56.638Z,16.55
2022-11-18T18:11:24.740Z,17.67
2022-11-18T18:14:10.364Z,17.65
2022-11-18T18:16:38.596Z,16.52
2022-11-18T18:19:07.678Z,16.90
2022-11-18T18:21:35.707Z,16.50
2022-11-18T18:24:04.422Z,15.00
2022-11-18T18:26:32.197Z,14.30
2022-11-18T18:29:00.516Z,14.80
2022-11-18T18:31:28.416Z,14.52
2022-11-18T18:33:55.801Z,13.70
2022-11-18T18:36:25.200Z,14.10
2022-11-18T18:38:52.550Z,13.83
2022-11-18T18:41:22.172Z,14.33
2022-11-18T18:43:49.961Z,14.90
2022-11-18T18:46:36.503Z,15.13
2022-11-18T18:49:06.175Z,15.23
2022-11-18T18:51:44.952Z,17.10
2022-11-18T18:54:14.192Z,15.68
2022-11-18T18:56:42.117Z,16.38
2022-11-18T18:59:09.798Z,16.80
2022-11-18T19:01:38.108Z,14.52
2022-11-18T19:04:07.328Z,13.95
2022-11-18T19:09:25.405Z,12.90
2022-11-18T19:12:12.370Z,13.55
2022-11-18T19:14:39.746Z,14.73
2022-11-18T19:17:11.256Z,15.25
2022-11-18T19:19:59.562Z,14.40
2022-11-18T19:22:31.000Z,14.45
2022-11-18T19:24:59.628Z,15.73
2022-11-18T19:27:27.838Z,15.65
2022-11-18T19:29:55.071Z,14.35
2022-11-18T19:32:22.360Z,14.45
2022-11-18T19:34:49.502Z,13.98
2022-11-18T19:37:16.724Z,14.80
2022-11-18T19:39:43.974Z,14.80
2022-11-18T19:42:11.331Z,14.93
2022-11-18T19:44:39.130Z,15.23
2022-11-18T19:47:06.352Z,14.48
2022-11-18T19:49:33.570Z,14.02
2022-11-18T19:52:00.742Z,14.20
2022-11-18T19:54:27.957Z,14.63
2022-11-18T19:56:55.130Z,14.23
2022-11-18T19:59:22.419Z,14.60
2022-11-18T20:01:49.620Z,13.60
2022-11-18T20:04:16.987Z,13.57
2022-11-18T20:06:44.220Z,14.20
2022-11-18T20:09:11.699Z,13.05
2022-11-18T20:11:39.270Z,13.15
2022-11-18T20:14:07.077Z,13.70
2022-11-18T20:16:36.527Z,13.23
2022-11-18T20:19:10.577Z,13.70
2022-11-18T20:21:38.888Z,13.65
2022-11-18T20:24:07.868Z,12.47
2022-11-18T20:26:38.613Z,12.52
2022-11-18T20:29:06.910Z,12.43
2022-11-18T20:31:35.648Z,13.17
2022-11-18T20:34:04.258Z,11.63
2022-11-18T20:36:35.503Z,13.63
2022-11-18T20:39:14.384Z,14.02
2022-11-18T20:41:41.926Z,16.13
2022-11-18T20:44:09.203Z,16.50
2022-11-18T20:46:36.378Z,16.60
2022-11-18T20:49:03.545Z,19.10
2022-11-18T20:51:30.648Z,18.52
2022-11-18T20:53:58.498Z,20.00
2022-11-18T20:56:27.365Z,22.35
2022-11-18T20:58:57.706Z,23.40
2022-11-18T21:01:27.872Z,23.70
2022-11-18T21:03:57.440Z,25.88
2022-11-18T21:06:26.967Z,25.35
2022-11-18T21:08:55.993Z,25.67
2022-11-18T21:11:23.410Z,28.47
2022-11-18T21:14:09.124Z,25.63
2022-11-18T21:16:36.651Z,26.63
2022-11-18T21:19:04.598Z,30.05
2022-11-18T21:21:52.333Z,27.33
2022-11-18T21:24:26.740Z,28.48
2022-11-18T21:26:55.028Z,29.10
2022-11-18T21:29:23.948Z,27.92
2022-11-18T21:31:51.892Z,27.70
2022-11-18T21:34:19.298Z,29.48
2022-11-18T21:36:51.641Z,31.30
2022-11-18T21:39:24.772Z,29.63
2022-11-18T21:41:56.208Z,28.75
2022-11-18T21:44:25.641Z,29.02
2022-11-18T21:46:52.960Z,29.00
2022-11-18T21:49:20.481Z,28.63
2022-11-18T21:51:47.778Z,29.35
2022-11-18T21:54:16.011Z,30.08
2022-11-18T21:56:43.382Z,30.33
2022-11-18T21:59:10.554Z,29.23
2022-11-18T22:01:37.984Z,30.30
2022-11-18T22:04:05.845Z,28.80
2022-11-18T22:06:34.248Z,27.42
2022-11-18T22:09:03.149Z,29.08
2022-11-18T22:11:30.647Z,32.57
2022-11-18T22:13:58.307Z,30.88
2022-11-18T22:16:26.813Z,30.80
2022-11-18T22:19:02.404Z,31.58
2022-11-18T22:21:32.425Z,33.05
2022-11-18T22:24:00.939Z,32.67
2022-11-18T22:26:28.733Z,33.67
2022-11-18T22:28:57.585Z,32.70
2022-11-18T22:31:26.805Z,32.30
2022-11-18T22:33:55.360Z,33.10
2022-11-18T22:36:25.079Z,32.88
2022-11-18T22:38:53.267Z,34.05
2022-11-18T22:41:41.910Z,31.08
2022-11-18T22:44:10.145Z,33.13
2022-11-18T22:46:38.590Z,32.40
2022-11-18T22:49:07.270Z,33.50
2022-11-18T22:51:35.419Z,33.65
2022-11-18T22:54:37.263Z,34.10
2022-11-18T22:56:50.228Z,32.90
2022-11-18T22:59:17.691Z,36.20
2022-11-18T23:01:44.986Z,33.00
2022-11-18T23:04:12.125Z,35.47
2022-11-18T23:06:39.301Z,33.72
2022-11-18T23:09:06.476Z,33.10
2022-11-18T23:11:52.275Z,35.30
2022-11-18T23:14:19.444Z,35.03
2022-11-18T23:16:46.638Z,35.17
2022-11-18T23:19:17.305Z,33.42
2022-11-18T23:21:45.343Z,34.28
2022-11-18T23:24:14.139Z,34.10
2022-11-18T23:26:42.000Z,34.05
2022-11-18T23:29:10.641Z,33.40
2022-11-18T23:31:41.338Z,35.33
2022-11-18T23:34:13.278Z,34.47
2022-11-18T23:36:41.341Z,34.47
2022-11-18T23:39:08.883Z,34.55
2022-11-18T23:41:36.225Z,34.50
2022-11-18T23:44:04.161Z,35.67
2022-11-18T23:46:32.432Z,32.60
2022-11-18T23:48:59.653Z,33.40
2022-11-18T23:51:26.996Z,35.88
2022-11-18T23:53:57.436Z,36.92
2022-11-18T23:56:26.603Z,36.20
2022-11-18T23:58:55.650Z,35.45
